sensor_id;sensor_type;location;lat;lon;timestamp;P1;durP1;ratioP1;P2;durP2;ratioP2
55053;SDS011;40954;45.668;18.980;2023-03-31T00:01:02;4.05;;;1.92;;
55053;SDS011;40954;45.668;18.980;2023-03-31T00:03:28;4.80;;;2.58;;
55053;SDS011;40954;45.668;18.980;2023-03-31T00:05:58;4.70;;;2.10;;
55053;SDS011;40954;45.668;18.980;2023-03-31T00:08:24;6.60;;;2.63;;
55053;SDS011;40954;45.668;18.980;2023-03-31T00:10:57;4.85;;;2.30;;
55053;SDS011;40954;45.668;18.980;2023-03-31T00:13:24;5.47;;;2.25;;
55053;SDS011;40954;45.668;18.980;2023-03-31T00:15:55;3.90;;;2.20;;
55053;SDS011;40954;45.668;18.980;2023-03-31T00:18:21;4.88;;;2.40;;
55053;SDS011;40954;45.668;18.980;2023-03-31T00:20:49;4.82;;;2.58;;
55053;SDS011;40954;45.668;18.980;2023-03-31T00:23:16;3.58;;;2.33;;
55053;SDS011;40954;45.668;18.980;2023-03-31T00:25:51;3.70;;;2.30;;
55053;SDS011;40954;45.668;18.980;2023-03-31T00:28:17;2.47;;;1.88;;
55053;SDS011;40954;45.668;18.980;2023-03-31T00:30:43;5.10;;;2.67;;
55053;SDS011;40954;45.668;18.980;2023-03-31T00:33:11;4.70;;;2.05;;
55053;SDS011;40954;45.668;18.980;2023-03-31T00:35:37;3.30;;;1.90;;
55053;SDS011;40954;45.668;18.980;2023-03-31T00:38:04;4.55;;;2.00;;
55053;SDS011;40954;45.668;18.980;2023-03-31T00:40:33;6.13;;;2.40;;
55053;SDS011;40954;45.668;18.980;2023-03-31T00:42:59;5.10;;;2.70;;
55053;SDS011;40954;45.668;18.980;2023-03-31T00:45:27;7.80;;;2.40;;
55053;SDS011;40954;45.668;18.980;2023-03-31T00:48:02;6.53;;;3.03;;
55053;SDS011;40954;45.668;18.980;2023-03-31T00:50:34;6.03;;;2.45;;
55053;SDS011;40954;45.668;18.980;2023-03-31T00:53:04;4.28;;;2.42;;
55053;SDS011;40954;45.668;18.980;2023-03-31T00:55:44;4.93;;;2.55;;
55053;SDS011;40954;45.668;18.980;2023-03-31T00:58:11;9.15;;;3.00;;
55053;SDS011;40954;45.668;18.980;2023-03-31T01:00:44;6.50;;;2.53;;
55053;SDS011;40954;45.668;18.980;2023-03-31T01:03:11;5.00;;;2.80;;
55053;SDS011;40954;45.668;18.980;2023-03-31T01:05:48;6.15;;;2.20;;
55053;SDS011;40954;45.668;18.980;2023-03-31T01:08:15;4.93;;;2.33;;
55053;SDS011;40954;45.668;18.980;2023-03-31T01:10:44;5.47;;;3.00;;
55053;SDS011;40954;45.668;18.980;2023-03-31T01:13:12;6.22;;;3.75;;
55053;SDS011;40954;45.668;18.980;2023-03-31T01:15:39;5.63;;;3.00;;
55053;SDS011;40954;45.668;18.980;2023-03-31T01:18:06;5.72;;;3.03;;
55053;SDS011;40954;45.668;18.980;2023-03-31T01:46:08;2.40;;;2.20;;
55053;SDS011;40954;45.668;18.980;2023-03-31T01:51:19;6.43;;;2.42;;
55053;SDS011;40954;45.668;18.980;2023-03-31T02:01:18;4.32;;;2.42;;
55053;SDS011;40954;45.668;18.980;2023-03-31T02:03:50;3.50;;;2.20;;
55053;SDS011;40954;45.668;18.980;2023-03-31T02:06:21;11.10;;;2.50;;
55053;SDS011;40954;45.668;18.980;2023-03-31T02:08:50;3.45;;;2.15;;
55053;SDS011;40954;45.668;18.980;2023-03-31T02:11:20;4.60;;;2.28;;
55053;SDS011;40954;45.668;18.980;2023-03-31T02:13:46;3.05;;;2.10;;
55053;SDS011;40954;45.668;18.980;2023-03-31T02:16:15;3.97;;;1.88;;
55053;SDS011;40954;45.668;18.980;2023-03-31T02:18:43;4.20;;;2.45;;
55053;SDS011;40954;45.668;18.980;2023-03-31T02:21:12;4.65;;;1.98;;
55053;SDS011;40954;45.668;18.980;2023-03-31T02:23:38;5.63;;;2.30;;
55053;SDS011;40954;45.668;18.980;2023-03-31T02:26:12;4.32;;;2.20;;
55053;SDS011;40954;45.668;18.980;2023-03-31T02:28:39;6.80;;;2.30;;
55053;SDS011;40954;45.668;18.980;2023-03-31T02:33:37;4.63;;;1.92;;
55053;SDS011;40954;45.668;18.980;2023-03-31T02:36:03;4.63;;;2.17;;
55053;SDS011;40954;45.668;18.980;2023-03-31T02:38:31;3.78;;;2.10;;
55053;SDS011;40954;45.668;18.980;2023-03-31T02:41:00;4.70;;;2.47;;
55053;SDS011;40954;45.668;18.980;2023-03-31T02:43:26;5.22;;;2.13;;
55053;SDS011;40954;45.668;18.980;2023-03-31T02:45:52;2.28;;;2.05;;
55053;SDS011;40954;45.668;18.980;2023-03-31T03:05:47;6.93;;;2.17;;
55053;SDS011;40954;45.668;18.980;2023-03-31T03:13:28;7.55;;;2.75;;
55053;SDS011;40954;45.668;18.980;2023-03-31T03:15:58;4.22;;;2.20;;
55053;SDS011;40954;45.668;18.980;2023-03-31T03:18:26;4.97;;;2.50;;
55053;SDS011;40954;45.668;18.980;2023-03-31T03:20:52;5.95;;;2.72;;
55053;SDS011;40954;45.668;18.980;2023-03-31T03:23:18;9.18;;;2.65;;
55053;SDS011;40954;45.668;18.980;2023-03-31T03:25:44;7.10;;;2.90;;
55053;SDS011;40954;45.668;18.980;2023-03-31T03:28:11;4.60;;;2.13;;
55053;SDS011;40954;45.668;18.980;2023-03-31T03:30:37;7.47;;;2.95;;
55053;SDS011;40954;45.668;18.980;2023-03-31T03:33:03;4.65;;;2.33;;
55053;SDS011;40954;45.668;18.980;2023-03-31T03:35:31;9.80;;;3.05;;
55053;SDS011;40954;45.668;18.980;2023-03-31T03:37:57;4.63;;;2.58;;
55053;SDS011;40954;45.668;18.980;2023-03-31T03:40:23;9.50;;;2.70;;
55053;SDS011;40954;45.668;18.980;2023-03-31T03:42:49;5.45;;;2.40;;
55053;SDS011;40954;45.668;18.980;2023-03-31T03:45:15;3.90;;;2.28;;
55053;SDS011;40954;45.668;18.980;2023-03-31T03:47:41;3.53;;;2.17;;
55053;SDS011;40954;45.668;18.980;2023-03-31T03:50:08;5.82;;;2.63;;
55053;SDS011;40954;45.668;18.980;2023-03-31T03:52:34;4.22;;;1.83;;
55053;SDS011;40954;45.668;18.980;2023-03-31T03:55:00;6.38;;;2.42;;
55053;SDS011;40954;45.668;18.980;2023-03-31T03:57:26;5.40;;;2.60;;
55053;SDS011;40954;45.668;18.980;2023-03-31T03:59:52;2.72;;;2.30;;
55053;SDS011;40954;45.668;18.980;2023-03-31T04:02:18;7.50;;;3.60;;
55053;SDS011;40954;45.668;18.980;2023-03-31T04:04:44;6.50;;;3.30;;
55053;SDS011;40954;45.668;18.980;2023-03-31T04:07:11;10.20;;;3.85;;
55053;SDS011;40954;45.668;18.980;2023-03-31T04:09:37;8.07;;;5.38;;
55053;SDS011;40954;45.668;18.980;2023-03-31T04:12:03;11.15;;;5.22;;
55053;SDS011;40954;45.668;18.980;2023-03-31T04:14:29;8.75;;;5.05;;
55053;SDS011;40954;45.668;18.980;2023-03-31T04:16:55;6.20;;;4.10;;
55053;SDS011;40954;45.668;18.980;2023-03-31T04:19:22;9.73;;;4.03;;
55053;SDS011;40954;45.668;18.980;2023-03-31T04:21:50;5.15;;;3.55;;
55053;SDS011;40954;45.668;18.980;2023-03-31T04:24:22;6.40;;;4.18;;
55053;SDS011;40954;45.668;18.980;2023-03-31T04:26:54;7.53;;;4.00;;
55053;SDS011;40954;45.668;18.980;2023-03-31T04:29:20;4.32;;;3.67;;
55053;SDS011;40954;45.668;18.980;2023-03-31T04:31:51;7.35;;;3.75;;
55053;SDS011;40954;45.668;18.980;2023-03-31T04:34:17;5.35;;;3.30;;
55053;SDS011;40954;45.668;18.980;2023-03-31T04:36:46;5.93;;;3.50;;
55053;SDS011;40954;45.668;18.980;2023-03-31T04:39:15;5.88;;;2.85;;
55053;SDS011;40954;45.668;18.980;2023-03-31T04:41:42;3.80;;;2.75;;
55053;SDS011;40954;45.668;18.980;2023-03-31T04:44:08;6.78;;;3.42;;
55053;SDS011;40954;45.668;18.980;2023-03-31T04:46:34;6.53;;;3.58;;
55053;SDS011;40954;45.668;18.980;2023-03-31T04:49:00;7.40;;;3.88;;
55053;SDS011;40954;45.668;18.980;2023-03-31T04:51:27;9.20;;;5.15;;
55053;SDS011;40954;45.668;18.980;2023-03-31T04:53:53;11.15;;;6.88;;
55053;SDS011;40954;45.668;18.980;2023-03-31T04:56:19;8.50;;;5.75;;
55053;SDS011;40954;45.668;18.980;2023-03-31T04:58:46;6.93;;;4.65;;
55053;SDS011;40954;45.668;18.980;2023-03-31T05:01:12;8.55;;;4.07;;
55053;SDS011;40954;45.668;18.980;2023-03-31T05:03:42;4.43;;;3.13;;
55053;SDS011;40954;45.668;18.980;2023-03-31T05:06:08;4.07;;;2.75;;
55053;SDS011;40954;45.668;18.980;2023-03-31T05:08:34;4.03;;;3.63;;
55053;SDS011;40954;45.668;18.980;2023-03-31T05:11:01;6.32;;;4.03;;
55053;SDS011;40954;45.668;18.980;2023-03-31T05:13:27;4.57;;;3.83;;
55053;SDS011;40954;45.668;18.980;2023-03-31T05:15:54;9.40;;;3.85;;
55053;SDS011;40954;45.668;18.980;2023-03-31T05:18:20;10.32;;;5.65;;
55053;SDS011;40954;45.668;18.980;2023-03-31T05:20:46;6.55;;;3.90;;
55053;SDS011;40954;45.668;18.980;2023-03-31T05:23:12;42.95;;;22.70;;
55053;SDS011;40954;45.668;18.980;2023-03-31T05:25:38;24.27;;;15.68;;
55053;SDS011;40954;45.668;18.980;2023-03-31T05:28:06;29.77;;;19.02;;
55053;SDS011;40954;45.668;18.980;2023-03-31T05:30:33;35.58;;;20.55;;
55053;SDS011;40954;45.668;18.980;2023-03-31T05:32:59;22.05;;;15.32;;
55053;SDS011;40954;45.668;18.980;2023-03-31T05:35:26;16.58;;;10.80;;
55053;SDS011;40954;45.668;18.980;2023-03-31T05:37:53;11.05;;;7.35;;
55053;SDS011;40954;45.668;18.980;2023-03-31T05:40:19;7.72;;;5.25;;
55053;SDS011;40954;45.668;18.980;2023-03-31T05:42:45;7.47;;;4.35;;
55053;SDS011;40954;45.668;18.980;2023-03-31T05:45:11;6.53;;;4.38;;
55053;SDS011;40954;45.668;18.980;2023-03-31T05:47:37;6.38;;;2.53;;
55053;SDS011;40954;45.668;18.980;2023-03-31T05:50:04;5.70;;;3.10;;
55053;SDS011;40954;45.668;18.980;2023-03-31T05:52:33;6.75;;;3.30;;
55053;SDS011;40954;45.668;18.980;2023-03-31T05:55:00;9.63;;;3.50;;
55053;SDS011;40954;45.668;18.980;2023-03-31T05:57:26;6.30;;;3.22;;
55053;SDS011;40954;45.668;18.980;2023-03-31T05:59:52;5.80;;;3.42;;
55053;SDS011;40954;45.668;18.980;2023-03-31T06:02:18;12.35;;;7.22;;
55053;SDS011;40954;45.668;18.980;2023-03-31T06:04:44;8.68;;;4.38;;
55053;SDS011;40954;45.668;18.980;2023-03-31T06:07:10;9.90;;;3.30;;
55053;SDS011;40954;45.668;18.980;2023-03-31T06:09:38;5.43;;;2.58;;
55053;SDS011;40954;45.668;18.980;2023-03-31T06:12:05;5.15;;;2.80;;
55053;SDS011;40954;45.668;18.980;2023-03-31T06:14:32;5.68;;;2.58;;
55053;SDS011;40954;45.668;18.980;2023-03-31T06:16:58;6.63;;;2.72;;
55053;SDS011;40954;45.668;18.980;2023-03-31T06:19:24;10.90;;;2.80;;
55053;SDS011;40954;45.668;18.980;2023-03-31T06:21:50;3.45;;;2.75;;
55053;SDS011;40954;45.668;18.980;2023-03-31T06:24:16;8.07;;;3.30;;
55053;SDS011;40954;45.668;18.980;2023-03-31T06:26:42;5.18;;;3.28;;
55053;SDS011;40954;45.668;18.980;2023-03-31T06:29:08;5.57;;;3.22;;
55053;SDS011;40954;45.668;18.980;2023-03-31T06:31:34;7.75;;;3.67;;
55053;SDS011;40954;45.668;18.980;2023-03-31T06:34:00;8.90;;;4.40;;
55053;SDS011;40954;45.668;18.980;2023-03-31T06:36:26;7.07;;;3.78;;
55053;SDS011;40954;45.668;18.980;2023-03-31T06:38:52;7.38;;;4.32;;
55053;SDS011;40954;45.668;18.980;2023-03-31T06:41:18;7.30;;;4.20;;
55053;SDS011;40954;45.668;18.980;2023-03-31T06:43:46;7.40;;;3.83;;
55053;SDS011;40954;45.668;18.980;2023-03-31T06:46:12;7.97;;;5.60;;
55053;SDS011;40954;45.668;18.980;2023-03-31T06:48:38;4.28;;;3.28;;
55053;SDS011;40954;45.668;18.980;2023-03-31T06:51:05;5.55;;;3.20;;
55053;SDS011;40954;45.668;18.980;2023-03-31T06:53:32;5.10;;;3.08;;
55053;SDS011;40954;45.668;18.980;2023-03-31T06:55:58;6.55;;;3.10;;
55053;SDS011;40954;45.668;18.980;2023-03-31T06:58:24;6.55;;;3.15;;
55053;SDS011;40954;45.668;18.980;2023-03-31T07:00:50;6.82;;;4.20;;
55053;SDS011;40954;45.668;18.980;2023-03-31T07:03:17;11.00;;;3.38;;
55053;SDS011;40954;45.668;18.980;2023-03-31T07:05:52;9.95;;;4.22;;
55053;SDS011;40954;45.668;18.980;2023-03-31T07:08:19;7.57;;;3.97;;
55053;SDS011;40954;45.668;18.980;2023-03-31T07:10:46;7.57;;;4.20;;
55053;SDS011;40954;45.668;18.980;2023-03-31T07:13:13;7.88;;;3.78;;
55053;SDS011;40954;45.668;18.980;2023-03-31T07:15:40;5.47;;;3.90;;
55053;SDS011;40954;45.668;18.980;2023-03-31T07:18:06;5.43;;;3.10;;
55053;SDS011;40954;45.668;18.980;2023-03-31T07:20:33;7.75;;;3.70;;
55053;SDS011;40954;45.668;18.980;2023-03-31T07:23:01;10.73;;;3.97;;
55053;SDS011;40954;45.668;18.980;2023-03-31T07:25:27;10.18;;;5.05;;
55053;SDS011;40954;45.668;18.980;2023-03-31T07:27:53;7.53;;;2.90;;
55053;SDS011;40954;45.668;18.980;2023-03-31T07:30:19;6.45;;;3.20;;
55053;SDS011;40954;45.668;18.980;2023-03-31T07:32:47;7.00;;;3.00;;
55053;SDS011;40954;45.668;18.980;2023-03-31T07:35:13;8.90;;;4.15;;
55053;SDS011;40954;45.668;18.980;2023-03-31T07:37:41;7.05;;;3.35;;
55053;SDS011;40954;45.668;18.980;2023-03-31T07:40:08;7.63;;;3.10;;
55053;SDS011;40954;45.668;18.980;2023-03-31T07:42:35;6.70;;;2.63;;
55053;SDS011;40954;45.668;18.980;2023-03-31T07:45:01;7.65;;;3.67;;
55053;SDS011;40954;45.668;18.980;2023-03-31T07:47:30;8.05;;;3.95;;
55053;SDS011;40954;45.668;18.980;2023-03-31T07:49:56;8.50;;;3.47;;
55053;SDS011;40954;45.668;18.980;2023-03-31T07:52:22;4.25;;;2.75;;
55053;SDS011;40954;45.668;18.980;2023-03-31T07:54:48;7.72;;;3.40;;
55053;SDS011;40954;45.668;18.980;2023-03-31T07:57:14;4.80;;;2.95;;
55053;SDS011;40954;45.668;18.980;2023-03-31T07:59:41;7.28;;;3.20;;
55053;SDS011;40954;45.668;18.980;2023-03-31T08:02:10;5.95;;;2.88;;
55053;SDS011;40954;45.668;18.980;2023-03-31T08:04:37;5.82;;;3.83;;
55053;SDS011;40954;45.668;18.980;2023-03-31T08:07:03;4.88;;;3.25;;
55053;SDS011;40954;45.668;18.980;2023-03-31T08:09:29;5.13;;;3.60;;
55053;SDS011;40954;45.668;18.980;2023-03-31T08:11:55;8.18;;;3.13;;
55053;SDS011;40954;45.668;18.980;2023-03-31T08:14:21;6.55;;;3.13;;
55053;SDS011;40954;45.668;18.980;2023-03-31T08:16:47;5.00;;;2.55;;
55053;SDS011;40954;45.668;18.980;2023-03-31T08:19:13;9.13;;;3.08;;
55053;SDS011;40954;45.668;18.980;2023-03-31T08:21:40;6.30;;;2.95;;
55053;SDS011;40954;45.668;18.980;2023-03-31T08:24:06;7.00;;;2.47;;
55053;SDS011;40954;45.668;18.980;2023-03-31T08:26:32;4.85;;;2.60;;
55053;SDS011;40954;45.668;18.980;2023-03-31T08:28:59;4.35;;;2.65;;
55053;SDS011;40954;45.668;18.980;2023-03-31T08:31:25;6.10;;;2.80;;
55053;SDS011;40954;45.668;18.980;2023-03-31T08:33:53;9.10;;;2.30;;
55053;SDS011;40954;45.668;18.980;2023-03-31T08:36:19;6.68;;;2.40;;
55053;SDS011;40954;45.668;18.980;2023-03-31T08:38:45;5.88;;;2.50;;
55053;SDS011;40954;45.668;18.980;2023-03-31T08:41:28;5.55;;;2.38;;
55053;SDS011;40954;45.668;18.980;2023-03-31T08:43:57;5.05;;;1.92;;
55053;SDS011;40954;45.668;18.980;2023-03-31T08:46:23;8.57;;;2.47;;
55053;SDS011;40954;45.668;18.980;2023-03-31T08:48:56;7.25;;;3.30;;
55053;SDS011;40954;45.668;18.980;2023-03-31T08:51:24;4.22;;;2.40;;
55053;SDS011;40954;45.668;18.980;2023-03-31T08:53:57;3.97;;;2.55;;
55053;SDS011;40954;45.668;18.980;2023-03-31T08:58:50;5.45;;;2.70;;
55053;SDS011;40954;45.668;18.980;2023-03-31T09:06:35;6.03;;;3.38;;
55053;SDS011;40954;45.668;18.980;2023-03-31T09:09:02;6.72;;;3.42;;
55053;SDS011;40954;45.668;18.980;2023-03-31T09:11:46;4.55;;;2.15;;
55053;SDS011;40954;45.668;18.980;2023-03-31T09:19:10;7.13;;;3.38;;
55053;SDS011;40954;45.668;18.980;2023-03-31T09:21:39;4.15;;;2.42;;
55053;SDS011;40954;45.668;18.980;2023-03-31T09:24:09;7.13;;;2.15;;
55053;SDS011;40954;45.668;18.980;2023-03-31T09:29:03;6.15;;;2.10;;
55053;SDS011;40954;45.668;18.980;2023-03-31T09:31:32;6.00;;;2.13;;
55053;SDS011;40954;45.668;18.980;2023-03-31T09:34:00;2.25;;;2.00;;
55053;SDS011;40954;45.668;18.980;2023-03-31T09:36:26;6.05;;;2.78;;
55053;SDS011;40954;45.668;18.980;2023-03-31T09:38:52;3.38;;;2.20;;
55053;SDS011;40954;45.668;18.980;2023-03-31T09:41:18;6.68;;;2.95;;
55053;SDS011;40954;45.668;18.980;2023-03-31T09:43:45;5.72;;;3.05;;
55053;SDS011;40954;45.668;18.980;2023-03-31T09:46:29;9.95;;;2.92;;
55053;SDS011;40954;45.668;18.980;2023-03-31T09:49:03;7.82;;;3.85;;
55053;SDS011;40954;45.668;18.980;2023-03-31T09:51:32;3.42;;;2.22;;
55053;SDS011;40954;45.668;18.980;2023-03-31T09:59:40;7.30;;;3.47;;
55053;SDS011;40954;45.668;18.980;2023-03-31T10:01:59;6.22;;;2.38;;
55053;SDS011;40954;45.668;18.980;2023-03-31T10:04:27;5.22;;;2.38;;
55053;SDS011;40954;45.668;18.980;2023-03-31T10:06:54;3.97;;;2.40;;
55053;SDS011;40954;45.668;18.980;2023-03-31T10:09:23;4.60;;;2.38;;
55053;SDS011;40954;45.668;18.980;2023-03-31T10:11:52;4.15;;;2.10;;
55053;SDS011;40954;45.668;18.980;2023-03-31T10:14:23;4.15;;;2.08;;
55053;SDS011;40954;45.668;18.980;2023-03-31T10:16:54;3.08;;;2.03;;
55053;SDS011;40954;45.668;18.980;2023-03-31T10:19:24;6.28;;;2.38;;
55053;SDS011;40954;45.668;18.980;2023-03-31T10:24:26;5.53;;;1.80;;
55053;SDS011;40954;45.668;18.980;2023-03-31T10:27:01;3.88;;;1.75;;
55053;SDS011;40954;45.668;18.980;2023-03-31T10:29:30;6.50;;;2.30;;
55053;SDS011;40954;45.668;18.980;2023-03-31T10:32:21;3.08;;;1.98;;
55053;SDS011;40954;45.668;18.980;2023-03-31T10:34:43;2.83;;;2.20;;
55053;SDS011;40954;45.668;18.980;2023-03-31T10:37:12;3.20;;;2.10;;
55053;SDS011;40954;45.668;18.980;2023-03-31T10:39:39;3.22;;;2.25;;
55053;SDS011;40954;45.668;18.980;2023-03-31T10:42:05;4.25;;;2.25;;
55053;SDS011;40954;45.668;18.980;2023-03-31T10:44:33;5.00;;;2.22;;
55053;SDS011;40954;45.668;18.980;2023-03-31T10:49:40;4.57;;;2.47;;
55053;SDS011;40954;45.668;18.980;2023-03-31T10:52:16;5.65;;;1.90;;
55053;SDS011;40954;45.668;18.980;2023-03-31T10:54:47;5.15;;;1.92;;
55053;SDS011;40954;45.668;18.980;2023-03-31T10:57:13;5.20;;;1.77;;
55053;SDS011;40954;45.668;18.980;2023-03-31T10:59:58;2.60;;;1.70;;
55053;SDS011;40954;45.668;18.980;2023-03-31T11:13:07;4.32;;;1.88;;
55053;SDS011;40954;45.668;18.980;2023-03-31T11:21:31;6.50;;;2.20;;
55053;SDS011;40954;45.668;18.980;2023-03-31T11:34:10;5.05;;;2.30;;
55053;SDS011;40954;45.668;18.980;2023-03-31T11:41:47;3.65;;;2.05;;
55053;SDS011;40954;45.668;18.980;2023-03-31T11:44:15;4.32;;;2.38;;
55053;SDS011;40954;45.668;18.980;2023-03-31T11:46:50;2.60;;;2.22;;
55053;SDS011;40954;45.668;18.980;2023-03-31T11:49:18;4.57;;;2.03;;
55053;SDS011;40954;45.668;18.980;2023-03-31T11:54:16;1.92;;;1.50;;
55053;SDS011;40954;45.668;18.980;2023-03-31T11:56:43;3.17;;;2.03;;
55053;SDS011;40954;45.668;18.980;2023-03-31T11:59:10;4.43;;;2.40;;
55053;SDS011;40954;45.668;18.980;2023-03-31T12:04:29;5.55;;;3.47;;
55053;SDS011;40954;45.668;18.980;2023-03-31T12:07:21;4.07;;;2.88;;
55053;SDS011;40954;45.668;18.980;2023-03-31T12:12:33;5.93;;;2.67;;
55053;SDS011;40954;45.668;18.980;2023-03-31T12:17:26;5.20;;;1.83;;
55053;SDS011;40954;45.668;18.980;2023-03-31T12:19:54;3.63;;;2.40;;
55053;SDS011;40954;45.668;18.980;2023-03-31T12:24:53;5.28;;;2.38;;
55053;SDS011;40954;45.668;18.980;2023-03-31T12:27:21;3.63;;;1.88;;
55053;SDS011;40954;45.668;18.980;2023-03-31T12:30:02;4.95;;;2.33;;
55053;SDS011;40954;45.668;18.980;2023-03-31T12:32:30;5.47;;;1.80;;
55053;SDS011;40954;45.668;18.980;2023-03-31T12:48:32;3.17;;;1.92;;
55053;SDS011;40954;45.668;18.980;2023-03-31T12:56:22;3.83;;;2.03;;
55053;SDS011;40954;45.668;18.980;2023-03-31T12:58:48;2.55;;;1.95;;
55053;SDS011;40954;45.668;18.980;2023-03-31T13:11:16;3.60;;;2.20;;
55053;SDS011;40954;45.668;18.980;2023-03-31T13:13:44;3.13;;;2.63;;
55053;SDS011;40954;45.668;18.980;2023-03-31T13:16:11;4.47;;;1.95;;
55053;SDS011;40954;45.668;18.980;2023-03-31T13:18:44;4.28;;;2.22;;
55053;SDS011;40954;45.668;18.980;2023-03-31T13:21:15;3.47;;;1.85;;
55053;SDS011;40954;45.668;18.980;2023-03-31T13:23:42;5.03;;;1.90;;
55053;SDS011;40954;45.668;18.980;2023-03-31T13:34:20;10.40;;;2.33;;
55053;SDS011;40954;45.668;18.980;2023-03-31T13:37:29;4.00;;;2.25;;
55053;SDS011;40954;45.668;18.980;2023-03-31T14:00:20;2.15;;;1.98;;
55053;SDS011;40954;45.668;18.980;2023-03-31T14:03:26;5.25;;;2.00;;
55053;SDS011;40954;45.668;18.980;2023-03-31T14:05:43;3.92;;;2.30;;
55053;SDS011;40954;45.668;18.980;2023-03-31T14:08:32;6.05;;;2.92;;
55053;SDS011;40954;45.668;18.980;2023-03-31T14:11:21;4.13;;;2.20;;
55053;SDS011;40954;45.668;18.980;2023-03-31T14:14:03;4.35;;;2.30;;
55053;SDS011;40954;45.668;18.980;2023-03-31T14:16:31;6.18;;;2.67;;
55053;SDS011;40954;45.668;18.980;2023-03-31T14:19:06;6.43;;;2.00;;
55053;SDS011;40954;45.668;18.980;2023-03-31T14:21:37;4.35;;;2.15;;
55053;SDS011;40954;45.668;18.980;2023-03-31T14:34:31;3.47;;;2.28;;
55053;SDS011;40954;45.668;18.980;2023-03-31T14:37:01;3.50;;;2.50;;
55053;SDS011;40954;45.668;18.980;2023-03-31T14:39:42;3.53;;;2.55;;
55053;SDS011;40954;45.668;18.980;2023-03-31T14:42:12;4.45;;;2.40;;
55053;SDS011;40954;45.668;18.980;2023-03-31T14:44:39;3.00;;;2.10;;
55053;SDS011;40954;45.668;18.980;2023-03-31T14:47:12;5.50;;;2.30;;
55053;SDS011;40954;45.668;18.980;2023-03-31T14:49:45;5.43;;;2.33;;
55053;SDS011;40954;45.668;18.980;2023-03-31T14:52:17;3.92;;;1.90;;
55053;SDS011;40954;45.668;18.980;2023-03-31T14:54:44;8.98;;;6.93;;
55053;SDS011;40954;45.668;18.980;2023-03-31T14:57:12;7.72;;;4.47;;
55053;SDS011;40954;45.668;18.980;2023-03-31T14:59:41;7.28;;;4.68;;
55053;SDS011;40954;45.668;18.980;2023-03-31T15:02:09;5.80;;;3.03;;
55053;SDS011;40954;45.668;18.980;2023-03-31T15:04:38;7.90;;;3.20;;
55053;SDS011;40954;45.668;18.980;2023-03-31T15:07:09;3.50;;;2.20;;
55053;SDS011;40954;45.668;18.980;2023-03-31T15:09:35;1.88;;;1.77;;
55053;SDS011;40954;45.668;18.980;2023-03-31T15:12:11;5.50;;;2.83;;
55053;SDS011;40954;45.668;18.980;2023-03-31T15:14:57;4.07;;;3.00;;
55053;SDS011;40954;45.668;18.980;2023-03-31T15:17:27;4.38;;;2.33;;
55053;SDS011;40954;45.668;18.980;2023-03-31T15:19:59;4.32;;;2.10;;
55053;SDS011;40954;45.668;18.980;2023-03-31T15:22:44;3.88;;;1.95;;
55053;SDS011;40954;45.668;18.980;2023-03-31T15:25:11;3.83;;;2.45;;
55053;SDS011;40954;45.668;18.980;2023-03-31T15:27:40;7.75;;;3.60;;
55053;SDS011;40954;45.668;18.980;2023-03-31T15:30:13;6.35;;;3.38;;
55053;SDS011;40954;45.668;18.980;2023-03-31T15:32:43;4.68;;;3.17;;
55053;SDS011;40954;45.668;18.980;2023-03-31T15:37:49;7.20;;;3.92;;
55053;SDS011;40954;45.668;18.980;2023-03-31T15:40:26;6.97;;;4.30;;
55053;SDS011;40954;45.668;18.980;2023-03-31T15:42:55;7.35;;;2.67;;
55053;SDS011;40954;45.668;18.980;2023-03-31T15:51:05;3.80;;;1.85;;
55053;SDS011;40954;45.668;18.980;2023-03-31T15:56:00;4.47;;;1.98;;
55053;SDS011;40954;45.668;18.980;2023-03-31T15:58:46;3.40;;;2.33;;
55053;SDS011;40954;45.668;18.980;2023-03-31T16:01:17;5.50;;;3.05;;
55053;SDS011;40954;45.668;18.980;2023-03-31T16:03:44;4.25;;;2.75;;
55053;SDS011;40954;45.668;18.980;2023-03-31T16:06:19;7.38;;;2.42;;
55053;SDS011;40954;45.668;18.980;2023-03-31T16:08:47;4.18;;;2.70;;
55053;SDS011;40954;45.668;18.980;2023-03-31T16:11:19;5.07;;;2.80;;
55053;SDS011;40954;45.668;18.980;2023-03-31T16:13:51;8.90;;;3.40;;
55053;SDS011;40954;45.668;18.980;2023-03-31T16:16:19;7.72;;;4.10;;
55053;SDS011;40954;45.668;18.980;2023-03-31T16:18:50;6.07;;;4.00;;
55053;SDS011;40954;45.668;18.980;2023-03-31T16:21:26;2.97;;;2.67;;
55053;SDS011;40954;45.668;18.980;2023-03-31T16:23:54;4.25;;;2.20;;
55053;SDS011;40954;45.668;18.980;2023-03-31T16:26:22;2.70;;;1.95;;
55053;SDS011;40954;45.668;18.980;2023-03-31T16:28:51;4.13;;;2.42;;
55053;SDS011;40954;45.668;18.980;2023-03-31T16:33:54;8.82;;;2.58;;
55053;SDS011;40954;45.668;18.980;2023-03-31T16:36:21;5.72;;;2.53;;
55053;SDS011;40954;45.668;18.980;2023-03-31T16:38:47;6.75;;;2.25;;
55053;SDS011;40954;45.668;18.980;2023-03-31T16:41:16;4.07;;;2.28;;
55053;SDS011;40954;45.668;18.980;2023-03-31T16:43:43;4.43;;;2.13;;
55053;SDS011;40954;45.668;18.980;2023-03-31T16:46:10;4.47;;;2.08;;
55053;SDS011;40954;45.668;18.980;2023-03-31T16:48:36;4.03;;;2.70;;
55053;SDS011;40954;45.668;18.980;2023-03-31T16:51:03;4.07;;;2.13;;
55053;SDS011;40954;45.668;18.980;2023-03-31T16:53:30;6.57;;;2.67;;
55053;SDS011;40954;45.668;18.980;2023-03-31T16:55:57;9.27;;;3.08;;
55053;SDS011;40954;45.668;18.980;2023-03-31T16:58:24;6.50;;;3.00;;
55053;SDS011;40954;45.668;18.980;2023-03-31T17:00:51;11.90;;;4.50;;
55053;SDS011;40954;45.668;18.980;2023-03-31T17:03:17;7.35;;;3.42;;
55053;SDS011;40954;45.668;18.980;2023-03-31T17:05:44;9.38;;;6.03;;
55053;SDS011;40954;45.668;18.980;2023-03-31T17:08:10;9.57;;;4.00;;
55053;SDS011;40954;45.668;18.980;2023-03-31T17:10:37;10.80;;;3.40;;
55053;SDS011;40954;45.668;18.980;2023-03-31T17:13:04;10.85;;;4.35;;
55053;SDS011;40954;45.668;18.980;2023-03-31T17:15:30;6.25;;;3.13;;
55053;SDS011;40954;45.668;18.980;2023-03-31T17:17:56;9.20;;;2.85;;
55053;SDS011;40954;45.668;18.980;2023-03-31T17:20:23;3.53;;;2.40;;
55053;SDS011;40954;45.668;18.980;2023-03-31T17:22:50;6.20;;;2.50;;
55053;SDS011;40954;45.668;18.980;2023-03-31T17:25:16;6.28;;;3.40;;
55053;SDS011;40954;45.668;18.980;2023-03-31T17:27:43;7.00;;;3.90;;
55053;SDS011;40954;45.668;18.980;2023-03-31T17:30:09;5.63;;;2.80;;
55053;SDS011;40954;45.668;18.980;2023-03-31T17:32:36;7.13;;;3.05;;
55053;SDS011;40954;45.668;18.980;2023-03-31T17:35:02;6.03;;;3.38;;
55053;SDS011;40954;45.668;18.980;2023-03-31T17:37:29;7.97;;;3.92;;
55053;SDS011;40954;45.668;18.980;2023-03-31T17:39:55;4.78;;;2.63;;
55053;SDS011;40954;45.668;18.980;2023-03-31T17:42:21;4.07;;;2.80;;
55053;SDS011;40954;45.668;18.980;2023-03-31T17:44:47;7.15;;;3.35;;
55053;SDS011;40954;45.668;18.980;2023-03-31T17:47:15;5.72;;;2.92;;
55053;SDS011;40954;45.668;18.980;2023-03-31T17:49:42;12.10;;;5.28;;
55053;SDS011;40954;45.668;18.980;2023-03-31T17:52:08;6.40;;;2.80;;
55053;SDS011;40954;45.668;18.980;2023-03-31T17:54:34;7.75;;;5.18;;
55053;SDS011;40954;45.668;18.980;2023-03-31T17:57:01;14.48;;;6.55;;
55053;SDS011;40954;45.668;18.980;2023-03-31T17:59:27;11.23;;;6.65;;
55053;SDS011;40954;45.668;18.980;2023-03-31T18:01:53;10.15;;;5.57;;
55053;SDS011;40954;45.668;18.980;2023-03-31T18:04:19;9.32;;;6.45;;
55053;SDS011;40954;45.668;18.980;2023-03-31T18:21:22;24.10;;;14.80;;
55053;SDS011;40954;45.668;18.980;2023-03-31T19:46:44;9.85;;;5.20;;
55053;SDS011;40954;45.668;18.980;2023-03-31T19:49:12;8.35;;;3.95;;
55053;SDS011;40954;45.668;18.980;2023-03-31T19:51:38;6.22;;;3.10;;